WHISKEYTOWN DAM (USBR) (WHI)

Elevation: 1210' · SACRAMENTO R basin · Operator: US Bureau of Reclamation

Provisional data, subject to change.
Query executed Wednesday at 13:45:15   clock

Select a sensor type for a plot of data.
Note: Reservoir Flows are daily averages.

Earlier

Date RES ELE    STORAGE    RES CHG    OUTFLOW    INFLOW    EVAP    RIV REL    PPT INC    RAIN    SPILL    DIS PWR   
 FEET   AF   AF   CFS   CFS   CFS   CFS   INCHES   INCHES   CFS   CFS  
04/26/2016 1208.53 236401 95 213 277 16 199 0.00 60.76 0 14
04/27/2016 1208.63 236719 318 213 387 14 199 0.00 60.76 0 14
04/28/2016 1208.68 236878 -- 212 295 3 198 0.21 60.97 0 14
04/29/2016 1208.68 236878 0 212 227 15 198 0.00 60.97 0 14
04/30/2016 1208.68 236878 0 212 230 18 198 0.00 60.97 0 14
05/01/2016 1208.69 236910 32 213 242 13 199 0.00 60.97 0 14
05/02/2016 1208.72 237005 95 213 284 23 199 0.00 60.97 0 14
05/03/2016 1208.74 237069 64 212 265 21 198 0.00 60.97 0 14
05/04/2016 1208.77 237164 95 212 281 21 198 0.18 61.15 0 14
05/05/2016 1208.83 237355 191 212 313 5 198 0.05 61.20 0 14
05/06/2016 1208.90 237577 222 212 339 15 198 0.10 61.30 0 14
05/07/2016 1208.94 237704 127 212 291 15 198 0.45 61.75 0 14
05/08/2016 1208.97 237800 96 212 260 0 198 0.05 61.80 0 14
05/09/2016 1208.98 237831 31 212 238 10 198 0.04 61.84 0 14
05/10/2016 1208.99 237863 32 212 242 14 198 0.00 61.84 0 14
05/11/2016 1208.98 237831 -32 213 218 21 199 0.00 61.84 0 14
05/12/2016 1208.97 237800 -31 213 216 19 199 0.00 61.84 0 14
05/13/2016 1208.94 237704 -96 213 186 21 199 0.00 61.84 0 14
05/14/2016 1208.93 237673 -31 213 197 0 199 0.04 61.88 0 14
05/15/2016 1208.90 237577 -96 213 188 23 199 0.00 61.88 0 14
05/16/2016 1208.88 237514 -63 213 201 20 199 0.01 61.89 0 14
05/17/2016 1208.85 237418 -96 213 187 22 199 0.00 61.89 0 14
05/18/2016 1208.79 237228 -190 213 140 23 199 0.00 61.89 0 14
05/19/2016 1208.68 236878 -350 219 71 28 199 0.00 61.89 0 20
05/20/2016 1208.61 236656 -222 213 123 22 199 0.00 61.89 0 14
05/21/2016 1208.57 236528 -128 213 170 22 199 0.00 61.89 0 14
05/22/2016 1208.55 236465 -63 213 181 0 199 0.60 62.49 0 14
05/23/2016 1208.47 236211 -254 239 113 2 225 0.00 62.49 0 14
05/24/2016 1208.36 235861 -350 386 216 6 316 0.07 62.56 0 70
05/25/2016 -- -- -- -- -- -- -- -- -- -- --

Later | Latest

Warning! This data is preliminary and subject to revision.

Show WHI Map | Plot WHI Data | 1 Month WHI Data | Real-Time WHI Data | WHI Info